createdAt,value
2022-09-02T00:01:31.480Z,46.70
2022-09-02T00:04:05.544Z,46.60
2022-09-02T00:06:33.885Z,46.70
2022-09-02T00:09:01.921Z,46.70
2022-09-02T00:11:32.188Z,47.80
2022-09-02T00:14:06.742Z,46.90
2022-09-02T00:16:34.191Z,46.70
2022-09-02T00:19:02.735Z,47.30
2022-09-02T00:21:34.240Z,47.90
2022-09-02T00:24:03.994Z,47.60
2022-09-02T00:26:31.926Z,47.50
2022-09-02T00:28:59.395Z,47.40
2022-09-02T00:31:29.178Z,48.80
2022-09-02T00:33:57.173Z,47.20
2022-09-02T00:36:24.620Z,47.30
2022-09-02T00:38:52.991Z,47.50
2022-09-02T00:41:22.974Z,47.40
2022-09-02T00:44:03.904Z,47.60
2022-09-02T00:46:33.357Z,47.80
2022-09-02T00:49:16.392Z,48.30
2022-09-02T00:51:48.906Z,47.70
2022-09-02T00:54:19.540Z,47.80
2022-09-02T00:56:48.083Z,47.80
2022-09-02T00:59:27.792Z,47.80
2022-09-02T01:01:55.434Z,48.10
2022-09-02T01:04:22.982Z,48.40
2022-09-02T01:06:51.809Z,48.30
2022-09-02T01:09:20.009Z,48.30
2022-09-02T01:11:53.521Z,48.20
2022-09-02T01:14:22.111Z,48.30
2022-09-02T01:16:52.796Z,48.40
2022-09-02T01:19:22.997Z,48.40
2022-09-02T01:21:52.921Z,48.40
2022-09-02T01:24:23.565Z,48.60
2022-09-02T01:26:54.152Z,48.60
2022-09-02T01:29:24.026Z,50.20
2022-09-02T01:31:51.747Z,48.80
2022-09-02T01:34:19.269Z,49.60
2022-09-02T01:36:47.204Z,49.00
2022-09-02T01:39:15.015Z,49.10
2022-09-02T01:41:43.347Z,48.90
2022-09-02T01:44:12.304Z,49.30
2022-09-02T01:46:40.804Z,49.00
2022-09-02T01:49:08.531Z,50.60
2022-09-02T01:51:36.667Z,50.00
2022-09-02T01:54:05.333Z,49.80
2022-09-02T01:56:32.726Z,49.70
2022-09-02T01:59:02.521Z,49.60
2022-09-02T02:01:30.041Z,49.40
2022-09-02T02:03:58.011Z,49.70
2022-09-02T02:06:25.665Z,49.60
2022-09-02T02:08:55.126Z,49.90
2022-09-02T02:11:25.537Z,49.90
2022-09-02T02:13:57.936Z,49.60
2022-09-02T02:16:26.305Z,50.20
2022-09-02T02:18:53.824Z,49.80
2022-09-02T02:21:21.908Z,50.30
2022-09-02T02:23:51.537Z,49.80
2022-09-02T02:26:19.095Z,50.00
2022-09-02T02:28:49.228Z,50.10
2022-09-02T02:31:17.207Z,50.30
2022-09-02T02:33:44.760Z,51.60
2022-09-02T02:36:13.750Z,52.00
2022-09-02T02:38:41.564Z,50.90
2022-09-02T02:41:10.268Z,50.50
2022-09-02T02:43:38.252Z,50.40
2022-09-02T02:46:07.265Z,50.30
2022-09-02T02:48:36.442Z,50.30
2022-09-02T02:51:05.172Z,50.40
2022-09-02T02:53:34.682Z,50.70
2022-09-02T02:56:02.613Z,51.30
2022-09-02T02:58:30.449Z,50.50
2022-09-02T03:00:58.703Z,50.70
2022-09-02T03:03:26.299Z,50.50
2022-09-02T03:05:55.756Z,51.10
2022-09-02T03:08:25.921Z,51.30
2022-09-02T03:10:56.014Z,50.70
2022-09-02T03:13:29.427Z,50.80
2022-09-02T03:15:57.363Z,50.90
2022-09-02T03:18:24.991Z,51.20
2022-09-02T03:20:52.911Z,51.00
2022-09-02T03:23:20.733Z,51.20
2022-09-02T03:25:50.444Z,51.30
2022-09-02T03:28:29.760Z,51.40
2022-09-02T03:30:58.579Z,51.50
2022-09-02T03:33:27.307Z,52.00
2022-09-02T03:35:55.853Z,51.40
2022-09-02T03:38:27.428Z,51.60
2022-09-02T03:40:56.407Z,51.70
2022-09-02T03:43:25.312Z,51.70
2022-09-02T03:45:52.818Z,51.90
2022-09-02T03:48:20.611Z,52.00
2022-09-02T03:50:48.382Z,52.10
2022-09-02T03:53:20.570Z,52.10
2022-09-02T03:55:53.566Z,52.30
2022-09-02T03:58:23.895Z,52.20
2022-09-02T04:00:54.879Z,52.60
2022-09-02T04:03:25.297Z,52.10
2022-09-02T04:05:52.969Z,53.10
2022-09-02T04:08:24.395Z,52.50
2022-09-02T04:10:56.301Z,52.30
2022-09-02T04:13:24.131Z,55.10
2022-09-02T04:15:51.997Z,55.40
2022-09-02T04:18:22.867Z,56.00
2022-09-02T04:20:52.193Z,53.80
2022-09-02T04:23:20.728Z,55.20
2022-09-02T04:25:51.911Z,53.90
2022-09-02T04:28:19.440Z,57.40
2022-09-02T04:30:49.245Z,57.20
2022-09-02T04:33:19.376Z,56.60
2022-09-02T04:35:49.458Z,58.20
2022-09-02T04:38:18.963Z,55.90
2022-09-02T04:40:48.600Z,59.20
2022-09-02T04:43:18.494Z,57.30
2022-09-02T04:45:47.575Z,53.60
2022-09-02T04:48:19.051Z,54.90
2022-09-02T04:50:49.113Z,53.40
2022-09-02T04:53:17.826Z,56.90
2022-09-02T04:55:45.452Z,56.40
2022-09-02T04:58:16.769Z,56.30
2022-09-02T05:00:47.157Z,53.70
2022-09-02T05:03:16.555Z,56.10
2022-09-02T05:05:49.686Z,56.80
2022-09-02T05:08:22.514Z,53.90
2022-09-02T05:10:50.740Z,56.00
2022-09-02T05:13:18.697Z,54.60
2022-09-02T05:15:46.902Z,57.60
2022-09-02T05:18:15.730Z,57.30
2022-09-02T05:20:44.351Z,55.40
2022-09-02T05:23:15.145Z,55.60
2022-09-02T05:25:46.581Z,54.70
2022-09-02T05:28:16.671Z,56.30
2022-09-02T05:30:44.533Z,56.30
2022-09-02T05:33:13.682Z,55.30
2022-09-02T05:35:53.222Z,58.10
2022-09-02T05:38:20.820Z,55.90
2022-09-02T05:40:49.186Z,54.60
2022-09-02T05:43:17.915Z,54.60
2022-09-02T05:45:49.112Z,55.60
2022-09-02T05:48:38.600Z,56.10
2022-09-02T05:51:09.782Z,53.30
2022-09-02T05:54:01.517Z,54.10
2022-09-02T05:56:29.957Z,53.30
2022-09-02T05:58:59.479Z,55.80
2022-09-02T06:01:30.718Z,56.50
2022-09-02T06:04:02.407Z,55.30
2022-09-02T06:06:32.286Z,59.10
2022-09-02T06:09:01.070Z,53.60
2022-09-02T06:11:28.966Z,56.80
2022-09-02T06:13:57.516Z,56.10
2022-09-02T06:16:58.715Z,53.90
2022-09-02T06:19:33.617Z,55.50
2022-09-02T06:22:07.229Z,55.30
2022-09-02T06:24:37.333Z,56.40
2022-09-02T06:27:27.911Z,56.00
2022-09-02T06:29:56.365Z,56.10
2022-09-02T06:32:26.208Z,57.50
2022-09-02T06:35:00.083Z,59.50
2022-09-02T06:37:34.206Z,57.40
2022-09-02T06:40:05.504Z,55.30
2022-09-02T06:42:33.884Z,53.10
2022-09-02T06:45:14.327Z,54.70
2022-09-02T06:47:48.374Z,56.40
2022-09-02T06:50:16.032Z,54.70
2022-09-02T06:52:43.708Z,54.20
2022-09-02T06:55:14.421Z,53.10
2022-09-02T06:57:42.127Z,54.60
2022-09-02T07:00:13.629Z,53.80
2022-09-02T07:02:44.051Z,53.10
2022-09-02T07:05:15.017Z,53.10
2022-09-02T07:07:46.269Z,52.20
2022-09-02T07:10:17.970Z,52.40
2022-09-02T07:12:50.691Z,54.40
2022-09-02T07:15:25.743Z,52.30
2022-09-02T07:17:57.052Z,51.90
2022-09-02T07:20:33.753Z,54.20
2022-09-02T07:23:03.159Z,52.40
2022-09-02T07:25:32.765Z,53.10
2022-09-02T07:28:00.601Z,52.30
2022-09-02T07:30:31.796Z,52.00
2022-09-02T07:33:06.066Z,52.60
2022-09-02T07:35:37.052Z,56.70
2022-09-02T07:38:08.141Z,52.30
2022-09-02T07:40:37.202Z,51.60
2022-09-02T07:43:07.050Z,53.20
2022-09-02T07:45:37.725Z,52.00
2022-09-02T07:48:07.748Z,51.60
2022-09-02T07:50:40.107Z,52.00
2022-09-02T07:53:14.040Z,52.50
2022-09-02T07:55:44.466Z,53.90
2022-09-02T07:58:16.187Z,51.10
2022-09-02T08:00:47.402Z,54.10
2022-09-02T08:03:17.566Z,52.00
2022-09-02T08:05:51.251Z,49.70
2022-09-02T08:08:21.187Z,54.20
2022-09-02T08:10:50.794Z,50.20
2022-09-02T08:13:19.050Z,50.10
2022-09-02T08:15:47.008Z,50.70
2022-09-02T08:18:22.337Z,51.20
2022-09-02T08:20:50.529Z,49.70
2022-09-02T08:23:35.389Z,50.30
2022-09-02T08:26:05.692Z,50.40
2022-09-02T08:28:33.741Z,50.70
2022-09-02T08:31:05.478Z,48.70
2022-09-02T08:33:32.927Z,49.20
2022-09-02T08:36:12.040Z,49.60
2022-09-02T08:38:39.512Z,49.00
2022-09-02T08:41:42.202Z,49.20
2022-09-02T08:44:12.205Z,48.60
2022-09-02T08:46:40.201Z,48.40
2022-09-02T08:49:35.296Z,48.40
2022-09-02T08:52:05.108Z,47.80
2022-09-02T08:54:55.318Z,47.90
2022-09-02T08:57:27.186Z,47.80
2022-09-02T09:00:01.090Z,48.20
2022-09-02T09:02:56.676Z,47.70
2022-09-02T09:05:28.218Z,47.40
2022-09-02T09:08:21.810Z,47.50
2022-09-02T09:11:01.932Z,47.40
2022-09-02T09:13:41.260Z,46.50
2022-09-02T09:16:15.074Z,46.30
2022-09-02T09:18:54.429Z,46.20
2022-09-02T09:23:50.461Z,45.90
2022-09-02T09:26:22.720Z,45.80
2022-09-02T09:28:51.044Z,45.40
2022-09-02T09:31:21.237Z,45.20
2022-09-02T09:34:15.026Z,45.30
2022-09-02T09:36:44.022Z,45.50
2022-09-02T09:39:24.388Z,45.20
2022-09-02T09:42:11.764Z,44.90
2022-09-02T09:44:48.196Z,44.80
2022-09-02T09:47:19.635Z,44.80
2022-09-02T09:49:48.810Z,44.80
2022-09-02T09:52:30.679Z,44.60
2022-09-02T09:55:13.284Z,44.50
2022-09-02T09:57:44.610Z,44.60
2022-09-02T10:00:29.374Z,44.70
2022-09-02T10:03:00.951Z,44.60
2022-09-02T10:05:32.332Z,44.70
2022-09-02T10:08:17.058Z,44.70
2022-09-02T10:11:03.609Z,44.40
2022-09-02T10:13:36.775Z,44.40
2022-09-02T10:16:16.440Z,44.30
2022-09-02T10:18:51.077Z,44.50
2022-09-02T10:21:29.501Z,44.00
2022-09-02T10:24:08.879Z,43.80
2022-09-02T10:26:47.013Z,43.50
2022-09-02T10:29:41.063Z,43.30
2022-09-02T10:32:38.946Z,43.20
2022-09-02T10:35:24.299Z,43.20
2022-09-02T10:38:12.295Z,43.00
2022-09-02T10:40:52.893Z,42.80
2022-09-02T10:43:26.627Z,42.70
2022-09-02T10:46:08.579Z,42.70
2022-09-02T10:48:50.844Z,42.60
2022-09-02T10:51:30.500Z,43.80
2022-09-02T10:54:35.674Z,42.30
2022-09-02T10:57:14.672Z,42.30
2022-09-02T10:59:52.758Z,44.70
2022-09-02T11:02:25.110Z,43.90
2022-09-02T11:05:26.886Z,43.20
2022-09-02T11:08:09.917Z,42.20
2022-09-02T11:11:33.200Z,44.80
2022-09-02T11:14:26.785Z,41.30
2022-09-02T11:17:02.578Z,44.90
2022-09-02T11:19:42.966Z,42.10
2022-09-02T11:22:40.619Z,45.30
2022-09-02T11:25:21.435Z,43.00
2022-09-02T11:28:14.446Z,42.00
2022-09-02T11:31:10.707Z,41.00
2022-09-02T11:33:56.106Z,40.80
2022-09-02T11:36:25.516Z,40.60
2022-09-02T11:39:03.806Z,40.50
2022-09-02T11:41:48.400Z,40.50
2022-09-02T11:44:33.926Z,40.20
2022-09-02T11:47:19.906Z,39.90
2022-09-02T11:50:05.681Z,40.00
2022-09-02T11:52:45.604Z,39.90
2022-09-02T11:55:13.855Z,39.30
2022-09-02T11:57:42.214Z,39.10
2022-09-02T12:00:24.857Z,39.00
2022-09-02T12:03:37.868Z,39.10
2022-09-02T12:06:14.008Z,39.10
2022-09-02T12:08:42.133Z,38.50
2022-09-02T12:11:30.632Z,39.00
2022-09-02T12:14:00.041Z,39.70
2022-09-02T12:16:30.991Z,39.50
2022-09-02T12:18:58.753Z,40.90
2022-09-02T12:21:28.229Z,40.80
2022-09-02T12:24:19.784Z,37.90
2022-09-02T12:26:49.547Z,38.80
2022-09-02T12:29:24.750Z,37.90
2022-09-02T12:31:54.009Z,39.20
2022-09-02T12:34:21.725Z,37.90
2022-09-02T12:36:53.042Z,36.20
2022-09-02T12:39:27.504Z,37.00
2022-09-02T12:42:28.407Z,37.10
2022-09-02T12:45:11.952Z,36.50
2022-09-02T12:48:04.507Z,36.30
2022-09-02T12:50:44.167Z,36.30
2022-09-02T12:53:23.785Z,36.30
2022-09-02T12:56:04.330Z,36.00
2022-09-02T12:59:07.681Z,35.60
2022-09-02T13:01:48.403Z,35.80
2022-09-02T13:04:22.168Z,35.60
2022-09-02T13:07:08.503Z,36.00
2022-09-02T13:10:09.222Z,36.10
2022-09-02T13:13:14.369Z,35.50
2022-09-02T13:16:16.959Z,35.30
2022-09-02T13:19:09.202Z,35.10
2022-09-02T13:22:01.614Z,34.60
2022-09-02T13:24:42.877Z,34.20
2022-09-02T13:27:49.548Z,34.30
2022-09-02T13:30:35.096Z,33.70
2022-09-02T13:33:10.646Z,33.20
2022-09-02T13:35:40.446Z,33.10
2022-09-02T13:38:16.503Z,33.10
2022-09-02T13:40:46.400Z,32.90
2022-09-02T13:43:14.000Z,32.80
2022-09-02T13:45:42.540Z,33.10
2022-09-02T13:48:21.861Z,32.60
2022-09-02T13:50:51.166Z,32.50
2022-09-02T13:54:18.255Z,33.00
2022-09-02T13:56:27.276Z,32.50
2022-09-02T13:58:58.442Z,32.50
2022-09-02T14:01:35.171Z,32.60
2022-09-02T14:04:15.504Z,32.60
2022-09-02T14:06:46.543Z,32.60
2022-09-02T14:09:41.960Z,32.80
2022-09-02T14:12:09.496Z,32.60
2022-09-02T14:14:37.188Z,32.90
2022-09-02T14:17:25.831Z,33.00
2022-09-02T14:20:14.719Z,32.70
2022-09-02T14:22:42.889Z,32.80
2022-09-02T14:25:16.135Z,32.70
2022-09-02T14:27:52.101Z,32.60
2022-09-02T14:30:35.749Z,32.50
2022-09-02T14:33:39.156Z,32.40
2022-09-02T14:36:17.763Z,32.50
2022-09-02T14:38:45.111Z,32.30
2022-09-02T14:41:18.643Z,32.50
2022-09-02T14:43:58.973Z,32.20
2022-09-02T14:46:31.147Z,32.10
2022-09-02T14:49:04.487Z,32.00
2022-09-02T14:51:45.253Z,31.80
2022-09-02T14:54:12.806Z,31.50
2022-09-02T14:56:52.700Z,31.60
2022-09-02T14:59:20.703Z,31.10
2022-09-02T15:01:51.942Z,31.30
2022-09-02T15:04:21.320Z,31.10
2022-09-02T15:06:49.120Z,31.20
2022-09-02T15:09:17.101Z,31.20
2022-09-02T15:11:53.139Z,31.20
2022-09-02T15:14:20.498Z,31.00
2022-09-02T15:16:48.651Z,31.20
2022-09-02T15:19:16.021Z,31.10
2022-09-02T15:21:43.448Z,31.10
2022-09-02T15:24:10.839Z,31.00
2022-09-02T15:26:38.248Z,31.40
2022-09-02T15:29:05.675Z,31.20
2022-09-02T15:31:33.110Z,31.40
2022-09-02T15:34:00.581Z,31.30
2022-09-02T15:36:28.000Z,31.30
2022-09-02T15:38:55.429Z,31.10
2022-09-02T15:41:27.217Z,31.20
2022-09-02T15:43:55.011Z,31.00
2022-09-02T15:46:31.558Z,31.20
2022-09-02T15:49:07.436Z,31.00
2022-09-02T15:51:36.317Z,31.10
2022-09-02T15:54:09.786Z,31.20
2022-09-02T15:56:40.296Z,31.00
2022-09-02T15:59:10.494Z,30.90
2022-09-02T16:01:43.818Z,31.00
2022-09-02T16:04:12.685Z,30.90
2022-09-02T16:06:42.266Z,31.00
2022-09-02T16:09:11.988Z,31.30
2022-09-02T16:11:43.828Z,31.40
2022-09-02T16:14:11.881Z,31.40
2022-09-02T16:16:39.499Z,31.60
2022-09-02T16:19:09.825Z,31.80
2022-09-02T16:21:41.163Z,31.80
2022-09-02T16:24:10.031Z,31.90
2022-09-02T16:26:39.460Z,32.00
2022-09-02T16:29:09.561Z,32.30
2022-09-02T16:31:39.166Z,32.30
2022-09-02T16:34:18.065Z,32.40
2022-09-02T16:36:47.860Z,32.00
2022-09-02T16:39:15.508Z,32.10
2022-09-02T16:41:45.751Z,32.10
2022-09-02T16:44:16.425Z,32.10
2022-09-02T16:46:44.774Z,32.10
2022-09-02T16:49:18.440Z,32.20
2022-09-02T16:51:47.213Z,32.30
2022-09-02T16:54:17.484Z,32.40
2022-09-02T16:56:49.097Z,32.40
2022-09-02T16:59:18.537Z,32.70
2022-09-02T17:01:46.499Z,32.30
2022-09-02T17:04:13.975Z,32.80
2022-09-02T17:06:42.395Z,33.00
2022-09-02T17:09:10.082Z,34.10
2022-09-02T17:11:39.919Z,33.20
2022-09-02T17:14:10.322Z,33.30
2022-09-02T17:16:41.191Z,33.30
2022-09-02T17:19:10.473Z,33.60
2022-09-02T17:21:47.150Z,33.70
2022-09-02T17:24:15.580Z,33.80
2022-09-02T17:26:46.893Z,34.00
2022-09-02T17:29:46.832Z,34.00
2022-09-02T17:32:05.632Z,33.90
2022-09-02T17:34:33.792Z,34.40
2022-09-02T17:37:03.449Z,34.20
2022-09-02T17:39:30.986Z,34.30
2022-09-02T17:41:58.456Z,34.40
2022-09-02T17:44:33.477Z,34.50
2022-09-02T17:47:06.282Z,34.30
2022-09-02T17:49:36.577Z,34.40
2022-09-02T17:52:08.386Z,34.50
2022-09-02T17:54:37.952Z,34.50
2022-09-02T17:57:17.580Z,34.50
2022-09-02T18:00:02.255Z,34.70
2022-09-02T18:03:01.764Z,35.40
2022-09-02T18:05:50.523Z,35.00
2022-09-02T18:08:42.475Z,35.00
2022-09-02T18:11:13.904Z,35.10
2022-09-02T18:13:54.211Z,35.20
2022-09-02T18:16:33.558Z,35.40
2022-09-02T18:19:29.318Z,35.70
2022-09-02T18:22:08.779Z,35.50
2022-09-02T18:24:47.242Z,35.80
2022-09-02T18:27:52.454Z,35.80
2022-09-02T18:30:25.717Z,36.00
2022-09-02T18:33:06.637Z,36.30
2022-09-02T18:35:55.830Z,36.60
2022-09-02T18:38:39.811Z,36.40
2022-09-02T18:41:35.876Z,36.50
2022-09-02T18:44:28.066Z,36.60
2022-09-02T18:47:11.036Z,37.20
2022-09-02T18:49:42.100Z,37.00
2022-09-02T18:52:11.639Z,38.60
2022-09-02T18:54:50.684Z,37.20
2022-09-02T18:57:18.132Z,37.20
2022-09-02T19:00:00.369Z,37.20
2022-09-02T19:03:05.481Z,37.50
2022-09-02T19:05:33.851Z,37.50
2022-09-02T19:08:29.704Z,37.60
2022-09-02T19:11:01.000Z,37.40
2022-09-02T19:13:30.277Z,37.60
2022-09-02T19:16:04.126Z,37.50
2022-09-02T19:18:32.495Z,37.90
2022-09-02T19:20:59.978Z,37.70
2022-09-02T19:23:29.618Z,38.90
2022-09-02T19:25:59.224Z,37.70
2022-09-02T19:28:27.674Z,39.30
2022-09-02T19:31:01.757Z,38.00
2022-09-02T19:33:31.140Z,38.00
2022-09-02T19:35:59.285Z,38.10
2022-09-02T19:38:27.528Z,38.20
2022-09-02T19:40:56.589Z,38.20
2022-09-02T19:43:24.030Z,38.10
2022-09-02T19:45:51.678Z,39.40
2022-09-02T19:48:19.691Z,39.20
2022-09-02T19:50:48.657Z,38.50
2022-09-02T19:53:30.233Z,38.50
2022-09-02T19:55:59.605Z,38.60
2022-09-02T19:58:27.542Z,38.60
2022-09-02T20:00:56.014Z,38.60
2022-09-02T20:03:23.448Z,38.80
2022-09-02T20:05:54.618Z,38.80
2022-09-02T20:08:28.871Z,38.80
2022-09-02T20:10:58.296Z,38.90
2022-09-02T20:13:26.576Z,38.90
2022-09-02T20:15:55.277Z,39.00
2022-09-02T20:18:26.596Z,39.00
2022-09-02T20:20:57.387Z,39.30
2022-09-02T20:23:26.738Z,39.20
2022-09-02T20:26:23.892Z,39.20
2022-09-02T20:29:20.501Z,39.30
2022-09-02T20:32:05.218Z,39.40
2022-09-02T20:35:11.595Z,39.50
2022-09-02T20:37:57.240Z,39.50
2022-09-02T20:40:49.028Z,39.60
2022-09-02T20:43:27.210Z,39.60
2022-09-02T20:46:05.311Z,39.70
2022-09-02T20:48:39.429Z,39.70
2022-09-02T20:51:16.078Z,40.00
2022-09-02T20:54:03.276Z,40.70
2022-09-02T20:56:30.716Z,40.20
2022-09-02T20:59:05.789Z,40.10
2022-09-02T21:01:39.622Z,40.20
2022-09-02T21:04:39.224Z,40.30
2022-09-02T21:07:32.102Z,40.30
2022-09-02T21:10:16.773Z,40.40
2022-09-02T21:13:06.777Z,40.60
2022-09-02T21:15:58.751Z,40.50
2022-09-02T21:18:41.602Z,40.60
2022-09-02T21:21:48.944Z,40.70
2022-09-02T21:24:38.353Z,40.70
2022-09-02T21:27:31.983Z,40.90
2022-09-02T21:30:04.765Z,40.90
2022-09-02T21:33:00.089Z,41.10
2022-09-02T21:35:29.525Z,41.00
2022-09-02T21:38:07.196Z,41.40
2022-09-02T21:41:03.910Z,41.20
2022-09-02T21:43:55.985Z,41.20
2022-09-02T21:46:48.281Z,41.30
2022-09-02T21:49:42.208Z,41.50
2022-09-02T21:52:18.199Z,41.40
2022-09-02T21:55:01.179Z,41.50
2022-09-02T21:57:38.636Z,41.60
2022-09-02T22:00:10.102Z,41.60
2022-09-02T22:03:07.297Z,41.70
2022-09-02T22:05:48.170Z,41.70
2022-09-02T22:08:33.611Z,41.80
2022-09-02T22:11:09.112Z,41.80
2022-09-02T22:13:41.844Z,42.00
2022-09-02T22:16:39.300Z,42.10
2022-09-02T22:19:08.585Z,42.10
2022-09-02T22:21:48.619Z,42.10
2022-09-02T22:24:17.912Z,42.40
2022-09-02T22:27:13.931Z,42.30
2022-09-02T22:29:46.894Z,42.30
2022-09-02T22:32:18.099Z,42.40
2022-09-02T22:35:10.033Z,42.50
2022-09-02T22:38:01.839Z,42.50
2022-09-02T22:40:35.063Z,42.50
2022-09-02T22:43:10.093Z,42.50
2022-09-02T22:46:03.448Z,42.70
2022-09-02T22:48:57.707Z,42.70
2022-09-02T22:51:57.285Z,42.90
2022-09-02T22:54:25.970Z,42.80
2022-09-02T22:57:12.561Z,43.00
2022-09-02T23:00:02.446Z,43.20
2022-09-02T23:02:39.174Z,43.00
2022-09-02T23:05:39.254Z,43.00
2022-09-02T23:08:07.764Z,43.20
2022-09-02T23:10:42.902Z,43.50
2022-09-02T23:13:53.216Z,43.20
2022-09-02T23:16:39.778Z,43.30
2022-09-02T23:19:19.557Z,43.40
2022-09-02T23:22:11.456Z,43.50
2022-09-02T23:24:59.765Z,43.50
2022-09-02T23:27:44.294Z,43.60
2022-09-02T23:30:14.772Z,43.70
2022-09-02T23:32:54.061Z,43.70
2022-09-02T23:35:48.066Z,43.80
2022-09-02T23:38:38.508Z,43.70
2022-09-02T23:41:09.008Z,43.80
2022-09-02T23:43:37.308Z,44.00
2022-09-02T23:46:27.800Z,44.00
2022-09-02T23:49:06.828Z,44.00
2022-09-02T23:52:11.794Z,44.30
2022-09-02T23:54:50.745Z,44.20
2022-09-02T23:57:34.551Z,44.30
